< Typhoon 197818 1978 Season Typhoon 197820 >
Typhoon 197819 (JUDY)
General InformationTrack Information on Google MapsDetailed Wind Information || Disaster Info.ResourceGoogle EarthGE AnimationAtom FeedGeoJSON
Detalied Best Track (Time Zone = UTC)
Year Month Day Hour Lat. Long. Pressure (hPa) Wind (kt) Class Image Chart
1978 9 9 00 18.0 166.0 1006 0 2 -- Chart
1978 9 9 06 18.5 164.5 1004 0 2 -- Chart
1978 9 9 12 18.9 163.0 1004 0 2 -- Chart
1978 9 9 18 19.5 161.6 1004 0 2 -- Chart
1978 9 10 00 20.0 160.0 1004 0 2 -- Chart
1978 9 10 06 20.6 158.5 1004 0 2 -- Chart
1978 9 10 12 21.2 157.2 1004 0 2 -- Chart
1978 9 10 18 21.8 155.7 1004 0 2 -- Chart
1978 9 11 00 22.3 154.2 1004 0 2 -- Chart
1978 9 11 06 22.6 153.0 1004 0 2 -- Chart
1978 9 11 12 22.9 152.0 1004 0 2 -- Chart
1978 9 11 18 23.2 151.0 1004 0 2 -- Chart
1978 9 12 00 23.4 150.0 1004 0 2 -- Chart
1978 9 12 06 23.6 149.3 1000 0 2 -- Chart
1978 9 12 12 24.0 148.4 998 0 2 -- Chart
1978 9 12 18 24.3 147.6 994 35 3 -- Chart
1978 9 13 00 24.6 146.7 992 40 3 -- Chart
1978 9 13 06 25.4 146.3 985 50 4 -- Chart
1978 9 13 12 26.3 145.9 985 50 4 -- Chart
1978 9 13 18 27.1 145.6 980 55 4 -- Chart
1978 9 14 00 27.6 145.3 980 60 4 -- Chart
1978 9 14 06 28.1 145.1 975 60 4 -- Chart
1978 9 14 12 28.6 144.7 975 65 5 -- Chart
1978 9 14 18 29.2 144.5 970 65 5 -- Chart
1978 9 15 00 29.8 144.3 965 70 5 -- Chart
1978 9 15 06 30.6 144.4 960 75 5 -- Chart
1978 9 15 12 31.4 144.6 955 75 5 -- Chart
1978 9 15 18 32.5 145.2 950 80 5 -- Chart
1978 9 16 00 33.6 146.0 950 80 5 -- Chart
1978 9 16 06 34.9 147.3 950 80 5 -- Chart
1978 9 16 12 36.7 149.5 950 80 5 -- Chart
1978 9 16 18 38.4 151.7 960 70 5 -- Chart
1978 9 17 00 40.0 154.0 970 50 4 -- Chart
1978 9 17 06 41.0 155.5 985 45 3 -- Chart
1978 9 17 12 42.0 159.0 990 0 6 -- Chart
Japan Meteorological Agency Best Track Data | Correction Date : 1992-10-21
< Typhoon 197818 1978 Season Typhoon 197820 >

Help